MDT,Max TemperatureF,Mean TemperatureF,Min TemperatureF,Max Dew PointF,MeanDew PointF,Min DewpointF,Max Humidity, Mean Humidity, Min Humidity, Max Sea Level PressureIn, Mean Sea Level PressureIn, Min Sea Level PressureIn, Max VisibilityMiles, Mean VisibilityMiles, Min VisibilityMiles, Max Wind SpeedMPH, Mean Wind SpeedMPH, Max Gust SpeedMPH,PrecipitationIn, CloudCover, Events, WindDirDegrees
2013-9-1,76,67,58,64,61,57,100,77,54,30.17,30.04,29.91,10,8,0,15,4,24,0.24,6,Fog-Rain-Thunderstorm,209
2013-9-2,83,71,58,61,57,54,97,70,42,30.18,30.01,29.92,10,10,10,17,6,22,0.00,2,Thunderstorm,224
2013-9-3,84,72,59,59,55,50,84,59,34,30.09,29.99,29.92,10,10,10,17,6,23,0.00,1,,202
2013-9-4,84,69,54,64,56,53,93,67,40,30.27,30.10,30.01,10,9,1,29,2,37,0.30,2,Rain-Thunderstorm,60
2013-9-5,84,70,55,58,53,46,93,62,31,30.07,30.02,29.97,10,10,10,23,6,29,0.00,1,,192
2013-9-6,84,70,55,56,51,47,83,55,27,30.04,29.98,29.93,10,10,10,25,7,33,0.00,0,,169
2013-9-7,77,65,53,59,55,48,90,69,47,30.29,30.04,29.94,10,10,6,17,5,24,0.10,4,Rain-Thunderstorm,232
2013-9-8,67,62,57,59,57,55,100,87,73,30.17,30.01,29.88,10,9,2,7,2,12,0.18,8,Rain,353
2013-9-9,77,67,56,57,55,47,100,73,46,29.91,29.84,29.76,10,10,9,18,4,24,T,4,Rain,25
2013-9-10,63,60,56,57,54,49,87,77,67,30.10,29.93,29.81,10,10,6,16,6,20,0.08,7,Rain,7
2013-9-11,60,58,55,57,55,51,100,92,84,30.14,30.06,29.94,10,7,2,9,2,10,0.49,8,Rain,242
2013-9-12,69,62,54,55,53,49,100,78,55,30.15,30.00,29.94,10,10,8,16,6,20,0.02,5,Rain,208
2013-9-13,74,62,49,56,52,47,89,69,49,29.99,29.90,29.78,10,10,10,15,4,20,0.00,4,Rain-Thunderstorm,228
2013-9-14,75,62,48,55,51,47,96,69,41,29.89,29.85,29.78,10,10,10,10,2,15,0.01,1,Rain,301
2013-9-15,79,63,47,54,50,45,93,64,35,30.08,29.93,29.86,10,10,10,10,2,14,0.00,0,Thunderstorm,170
2013-9-16,81,66,51,52,47,43,77,53,28,29.98,29.90,29.83,10,10,10,17,6,23,0.00,0,,199
2013-9-17,80,68,55,52,44,38,72,48,23,29.84,29.73,29.62,10,10,9,30,11,43,0.00,1,,204
2013-9-18,78,64,50,41,37,33,51,37,23,29.88,29.75,29.65,10,10,10,14,7,18,0.00,0,,336
2013-9-19,74,56,38,37,34,30,73,48,23,30.04,29.98,29.91,10,10,10,13,2,17,0.00,0,,337
2013-9-20,80,59,38,39,33,28,76,46,15,30.00,29.91,29.81,10,10,10,21,4,28,0.00,0,,195
2013-9-21,78,64,49,40,34,28,56,39,22,29.83,29.72,29.53,10,10,10,33,13,47,0.00,0,,201
2013-9-22,67,57,47,42,33,22,71,47,23,29.85,29.62,29.49,10,10,9,28,14,38,0.04,1,Rain,208
2013-9-23,72,53,34,37,32,23,82,50,17,30.04,29.98,29.85,10,10,10,13,4,17,0.00,0,,96
2013-9-24,75,55,35,33,28,24,64,41,17,30.04,29.92,29.72,10,10,10,26,8,35,0.00,0,,204
2013-9-25,72,64,56,31,26,23,30,23,16,29.68,29.53,29.44,10,10,10,39,21,53,0.00,0,,210
2013-9-26,61,46,30,33,28,15,85,53,21,29.84,29.69,29.60,10,10,10,29,7,40,0.00,2,Rain,221
2013-9-27,57,43,28,33,27,22,92,60,27,30.17,30.01,29.83,10,10,10,16,5,21,0.00,2,,15
2013-9-28,68,46,24,26,19,10,81,46,11,30.26,30.16,30.10,10,10,10,15,3,18,0.00,0,,210
2013-9-29,72,52,32,24,20,17,63,39,14,30.19,30.07,29.99,10,10,10,21,9,26,0.00,0,,200
2013-9-30,74,58,42,24,22,19,41,28,14,29.99,29.93,29.88,10,10,10,20,9,25,0.00,0,,191